sensor_id;sensor_type;location;lat;lon;timestamp;temperature;humidity
3788;DHT22;1909;53.046;8.276;2023-02-26T00:02:13;-0.20;99.90
3788;DHT22;1909;53.046;8.276;2023-02-26T00:04:40;-0.20;99.90
3788;DHT22;1909;53.046;8.276;2023-02-26T00:07:07;-0.20;99.90
3788;DHT22;1909;53.046;8.276;2023-02-26T00:09:35;0.10;99.90
3788;DHT22;1909;53.046;8.276;2023-02-26T00:12:03;0.10;99.90
3788;DHT22;1909;53.046;8.276;2023-02-26T00:14:30;0.20;99.90
3788;DHT22;1909;53.046;8.276;2023-02-26T00:17:12;0.20;99.90
3788;DHT22;1909;53.046;8.276;2023-02-26T00:19:42;-0.30;99.90
3788;DHT22;1909;53.046;8.276;2023-02-26T00:22:09;0.20;99.90
3788;DHT22;1909;53.046;8.276;2023-02-26T00:24:37;0.20;99.90
3788;DHT22;1909;53.046;8.276;2023-02-26T00:27:04;0.30;99.90
3788;DHT22;1909;53.046;8.276;2023-02-26T00:29:32;0.10;99.90
3788;DHT22;1909;53.046;8.276;2023-02-26T00:32:00;0.20;99.90
3788;DHT22;1909;53.046;8.276;2023-02-26T00:34:27;0.30;99.90
3788;DHT22;1909;53.046;8.276;2023-02-26T00:37:05;0.30;99.90
3788;DHT22;1909;53.046;8.276;2023-02-26T00:39:43;0.20;99.90
3788;DHT22;1909;53.046;8.276;2023-02-26T00:42:12;0.00;99.90
3788;DHT22;1909;53.046;8.276;2023-02-26T00:44:40;0.20;99.90
3788;DHT22;1909;53.046;8.276;2023-02-26T00:47:10;0.20;99.90
3788;DHT22;1909;53.046;8.276;2023-02-26T00:49:49;0.10;99.90
3788;DHT22;1909;53.046;8.276;2023-02-26T00:52:23;0.10;99.90
3788;DHT22;1909;53.046;8.276;2023-02-26T00:54:54;0.00;99.90
3788;DHT22;1909;53.046;8.276;2023-02-26T00:57:20;-0.10;99.90
3788;DHT22;1909;53.046;8.276;2023-02-26T00:59:47;0.20;99.90
3788;DHT22;1909;53.046;8.276;2023-02-26T01:02:14;0.10;99.90
3788;DHT22;1909;53.046;8.276;2023-02-26T01:04:41;0.00;99.90
3788;DHT22;1909;53.046;8.276;2023-02-26T01:07:09;0.10;99.90
3788;DHT22;1909;53.046;8.276;2023-02-26T01:09:37;0.10;99.90
3788;DHT22;1909;53.046;8.276;2023-02-26T01:12:07;0.10;99.90
3788;DHT22;1909;53.046;8.276;2023-02-26T01:14:36;0.20;99.90
3788;DHT22;1909;53.046;8.276;2023-02-26T01:17:10;0.10;99.90
3788;DHT22;1909;53.046;8.276;2023-02-26T01:19:43;-0.20;99.90
3788;DHT22;1909;53.046;8.276;2023-02-26T01:22:16;0.10;99.90
3788;DHT22;1909;53.046;8.276;2023-02-26T01:24:46;0.00;99.90
3788;DHT22;1909;53.046;8.276;2023-02-26T01:27:15;-0.10;99.90
3788;DHT22;1909;53.046;8.276;2023-02-26T01:29:42;0.10;99.90
3788;DHT22;1909;53.046;8.276;2023-02-26T01:32:14;0.00;99.90
3788;DHT22;1909;53.046;8.276;2023-02-26T01:34:45;0.00;99.90
3788;DHT22;1909;53.046;8.276;2023-02-26T01:37:21;0.00;99.90
3788;DHT22;1909;53.046;8.276;2023-02-26T01:40:02;0.00;99.90
3788;DHT22;1909;53.046;8.276;2023-02-26T01:42:35;-0.20;99.90
3788;DHT22;1909;53.046;8.276;2023-02-26T01:45:11;0.00;99.90
3788;DHT22;1909;53.046;8.276;2023-02-26T01:47:46;0.00;99.90
3788;DHT22;1909;53.046;8.276;2023-02-26T01:50:16;-0.10;99.90
3788;DHT22;1909;53.046;8.276;2023-02-26T01:55:44;-0.10;99.90
3788;DHT22;1909;53.046;8.276;2023-02-26T01:58:13;-0.10;99.90
3788;DHT22;1909;53.046;8.276;2023-02-26T02:00:41;0.10;99.90
3788;DHT22;1909;53.046;8.276;2023-02-26T02:03:09;0.00;99.90
3788;DHT22;1909;53.046;8.276;2023-02-26T02:05:41;0.00;99.90
3788;DHT22;1909;53.046;8.276;2023-02-26T02:08:09;-0.10;99.90
3788;DHT22;1909;53.046;8.276;2023-02-26T02:10:40;0.00;99.90
3788;DHT22;1909;53.046;8.276;2023-02-26T02:13:12;0.00;99.90
3788;DHT22;1909;53.046;8.276;2023-02-26T02:15:45;0.00;99.90
3788;DHT22;1909;53.046;8.276;2023-02-26T02:18:21;-0.10;99.90
3788;DHT22;1909;53.046;8.276;2023-02-26T02:23:58;-0.30;99.90
3788;DHT22;1909;53.046;8.276;2023-02-26T02:26:49;-0.10;99.90
3788;DHT22;1909;53.046;8.276;2023-02-26T02:29:45;0.60;99.90
3788;DHT22;1909;53.046;8.276;2023-02-26T02:32:18;-0.10;99.90
3788;DHT22;1909;53.046;8.276;2023-02-26T02:34:50;-0.20;99.90
3788;DHT22;1909;53.046;8.276;2023-02-26T02:37:21;-0.20;99.90
3788;DHT22;1909;53.046;8.276;2023-02-26T02:39:53;-0.20;99.90
3788;DHT22;1909;53.046;8.276;2023-02-26T02:42:25;-0.40;99.90
3788;DHT22;1909;53.046;8.276;2023-02-26T02:44:57;0.00;99.90
3788;DHT22;1909;53.046;8.276;2023-02-26T02:47:27;-0.20;99.90
3788;DHT22;1909;53.046;8.276;2023-02-26T02:49:58;-0.40;99.90
3788;DHT22;1909;53.046;8.276;2023-02-26T02:52:30;-0.20;99.90
3788;DHT22;1909;53.046;8.276;2023-02-26T02:55:02;-0.40;99.90
3788;DHT22;1909;53.046;8.276;2023-02-26T02:57:32;-0.40;99.90
3788;DHT22;1909;53.046;8.276;2023-02-26T03:00:03;-0.30;99.90
3788;DHT22;1909;53.046;8.276;2023-02-26T03:02:36;-0.20;99.90
3788;DHT22;1909;53.046;8.276;2023-02-26T03:07:39;0.00;99.90
3788;DHT22;1909;53.046;8.276;2023-02-26T03:10:07;0.20;99.90
3788;DHT22;1909;53.046;8.276;2023-02-26T03:12:34;-0.30;99.90
3788;DHT22;1909;53.046;8.276;2023-02-26T03:15:02;-0.30;99.90
3788;DHT22;1909;53.046;8.276;2023-02-26T03:17:35;-0.20;99.90
3788;DHT22;1909;53.046;8.276;2023-02-26T03:20:13;-0.40;99.90
3788;DHT22;1909;53.046;8.276;2023-02-26T03:22:50;-0.30;99.90
3788;DHT22;1909;53.046;8.276;2023-02-26T03:25:20;-0.30;99.90
3788;DHT22;1909;53.046;8.276;2023-02-26T03:28:06;-0.20;99.90
3788;DHT22;1909;53.046;8.276;2023-02-26T03:30:36;-0.30;99.90
3788;DHT22;1909;53.046;8.276;2023-02-26T03:33:11;-0.40;99.90
3788;DHT22;1909;53.046;8.276;2023-02-26T03:35:46;-0.30;99.90
3788;DHT22;1909;53.046;8.276;2023-02-26T03:38:20;-0.30;99.90
3788;DHT22;1909;53.046;8.276;2023-02-26T03:40:52;-0.40;99.90
3788;DHT22;1909;53.046;8.276;2023-02-26T03:43:23;-0.30;99.90
3788;DHT22;1909;53.046;8.276;2023-02-26T03:45:56;-0.40;99.90
3788;DHT22;1909;53.046;8.276;2023-02-26T03:48:26;-0.40;99.90
3788;DHT22;1909;53.046;8.276;2023-02-26T03:50:59;-0.40;99.90
3788;DHT22;1909;53.046;8.276;2023-02-26T03:53:30;-0.20;99.90
3788;DHT22;1909;53.046;8.276;2023-02-26T03:56:02;-0.30;99.90
3788;DHT22;1909;53.046;8.276;2023-02-26T03:58:29;-0.50;99.90
3788;DHT22;1909;53.046;8.276;2023-02-26T04:01:00;-0.50;99.90
3788;DHT22;1909;53.046;8.276;2023-02-26T04:03:32;-0.40;99.90
3788;DHT22;1909;53.046;8.276;2023-02-26T04:06:01;-0.40;99.90
3788;DHT22;1909;53.046;8.276;2023-02-26T04:08:29;-0.50;99.90
3788;DHT22;1909;53.046;8.276;2023-02-26T04:10:59;-0.50;99.90
3788;DHT22;1909;53.046;8.276;2023-02-26T04:13:28;-0.50;99.90
3788;DHT22;1909;53.046;8.276;2023-02-26T04:15:55;-0.60;99.90
3788;DHT22;1909;53.046;8.276;2023-02-26T04:18:22;-0.10;99.90
3788;DHT22;1909;53.046;8.276;2023-02-26T04:20:50;-0.50;99.90
3788;DHT22;1909;53.046;8.276;2023-02-26T04:23:17;-0.50;99.90
3788;DHT22;1909;53.046;8.276;2023-02-26T04:25:44;-0.40;99.90
3788;DHT22;1909;53.046;8.276;2023-02-26T04:28:11;-0.50;99.90
3788;DHT22;1909;53.046;8.276;2023-02-26T04:30:38;-0.50;99.90
3788;DHT22;1909;53.046;8.276;2023-02-26T04:33:05;-0.50;99.90
3788;DHT22;1909;53.046;8.276;2023-02-26T04:35:32;-0.50;99.90
3788;DHT22;1909;53.046;8.276;2023-02-26T04:38:00;-0.50;99.90
3788;DHT22;1909;53.046;8.276;2023-02-26T04:40:27;-0.40;99.90
3788;DHT22;1909;53.046;8.276;2023-02-26T04:42:53;-0.40;99.90
3788;DHT22;1909;53.046;8.276;2023-02-26T04:45:20;-0.60;99.90
3788;DHT22;1909;53.046;8.276;2023-02-26T04:47:47;-0.40;99.90
3788;DHT22;1909;53.046;8.276;2023-02-26T04:50:14;-0.50;99.90
3788;DHT22;1909;53.046;8.276;2023-02-26T04:52:41;-0.50;99.90
3788;DHT22;1909;53.046;8.276;2023-02-26T04:55:10;-0.50;99.90
3788;DHT22;1909;53.046;8.276;2023-02-26T04:57:37;-0.50;99.90
3788;DHT22;1909;53.046;8.276;2023-02-26T05:00:04;-0.60;99.90
3788;DHT22;1909;53.046;8.276;2023-02-26T05:02:32;-0.50;99.90
3788;DHT22;1909;53.046;8.276;2023-02-26T05:04:59;-0.60;99.90
3788;DHT22;1909;53.046;8.276;2023-02-26T05:07:26;-0.60;99.90
3788;DHT22;1909;53.046;8.276;2023-02-26T05:09:52;-0.60;99.90
3788;DHT22;1909;53.046;8.276;2023-02-26T05:12:20;-0.60;99.90
3788;DHT22;1909;53.046;8.276;2023-02-26T05:14:47;-0.70;99.90
3788;DHT22;1909;53.046;8.276;2023-02-26T05:17:14;-0.70;99.90
3788;DHT22;1909;53.046;8.276;2023-02-26T05:19:41;-0.70;99.90
3788;DHT22;1909;53.046;8.276;2023-02-26T05:22:07;-0.70;99.90
3788;DHT22;1909;53.046;8.276;2023-02-26T05:24:34;-0.60;99.90
3788;DHT22;1909;53.046;8.276;2023-02-26T05:27:01;-0.60;99.90
3788;DHT22;1909;53.046;8.276;2023-02-26T05:29:29;-0.80;99.90
3788;DHT22;1909;53.046;8.276;2023-02-26T05:31:56;-1.50;99.90
3788;DHT22;1909;53.046;8.276;2023-02-26T05:34:23;-0.80;99.90
3788;DHT22;1909;53.046;8.276;2023-02-26T05:36:50;-0.90;99.90
3788;DHT22;1909;53.046;8.276;2023-02-26T05:39:16;-0.80;99.90
3788;DHT22;1909;53.046;8.276;2023-02-26T05:41:43;-0.70;99.90
3788;DHT22;1909;53.046;8.276;2023-02-26T05:44:10;-1.00;99.90
3788;DHT22;1909;53.046;8.276;2023-02-26T05:46:39;-0.80;99.90
3788;DHT22;1909;53.046;8.276;2023-02-26T05:49:05;-0.70;99.90
3788;DHT22;1909;53.046;8.276;2023-02-26T05:51:32;-0.90;99.90
3788;DHT22;1909;53.046;8.276;2023-02-26T05:53:59;-0.90;99.90
3788;DHT22;1909;53.046;8.276;2023-02-26T05:56:26;-1.10;99.90
3788;DHT22;1909;53.046;8.276;2023-02-26T05:58:52;-0.90;99.90
3788;DHT22;1909;53.046;8.276;2023-02-26T06:01:19;-0.90;99.90
3788;DHT22;1909;53.046;8.276;2023-02-26T06:03:47;-0.80;99.90
3788;DHT22;1909;53.046;8.276;2023-02-26T06:06:14;-0.80;99.90
3788;DHT22;1909;53.046;8.276;2023-02-26T06:08:43;-0.90;99.90
3788;DHT22;1909;53.046;8.276;2023-02-26T06:11:09;-0.90;99.90
3788;DHT22;1909;53.046;8.276;2023-02-26T06:13:37;-0.90;99.90
3788;DHT22;1909;53.046;8.276;2023-02-26T06:16:04;-0.90;99.90
3788;DHT22;1909;53.046;8.276;2023-02-26T06:18:30;-0.80;99.90
3788;DHT22;1909;53.046;8.276;2023-02-26T06:20:59;-0.90;99.90
3788;DHT22;1909;53.046;8.276;2023-02-26T06:23:26;-0.70;99.90
3788;DHT22;1909;53.046;8.276;2023-02-26T06:25:53;-1.00;99.90
3788;DHT22;1909;53.046;8.276;2023-02-26T06:28:20;-1.00;99.90
3788;DHT22;1909;53.046;8.276;2023-02-26T06:30:48;-1.00;99.90
3788;DHT22;1909;53.046;8.276;2023-02-26T06:33:17;-1.00;99.90
3788;DHT22;1909;53.046;8.276;2023-02-26T06:35:44;-0.90;99.90
3788;DHT22;1909;53.046;8.276;2023-02-26T06:38:12;-0.90;99.90
3788;DHT22;1909;53.046;8.276;2023-02-26T06:40:39;-0.90;99.90
3788;DHT22;1909;53.046;8.276;2023-02-26T06:43:06;-0.90;99.90
3788;DHT22;1909;53.046;8.276;2023-02-26T06:45:33;-0.90;99.90
3788;DHT22;1909;53.046;8.276;2023-02-26T06:48:00;-0.50;99.90
3788;DHT22;1909;53.046;8.276;2023-02-26T06:50:27;-1.00;99.90
3788;DHT22;1909;53.046;8.276;2023-02-26T06:52:54;-1.20;99.90
3788;DHT22;1909;53.046;8.276;2023-02-26T06:55:22;-1.00;99.90
3788;DHT22;1909;53.046;8.276;2023-02-26T06:57:51;-1.00;99.90
3788;DHT22;1909;53.046;8.276;2023-02-26T07:00:18;-0.90;99.90
3788;DHT22;1909;53.046;8.276;2023-02-26T07:02:46;-1.00;99.90
3788;DHT22;1909;53.046;8.276;2023-02-26T07:05:13;-1.00;99.90
3788;DHT22;1909;53.046;8.276;2023-02-26T07:07:40;-0.90;99.90
3788;DHT22;1909;53.046;8.276;2023-02-26T07:10:09;-1.10;99.90
3788;DHT22;1909;53.046;8.276;2023-02-26T07:12:38;-0.90;99.90
3788;DHT22;1909;53.046;8.276;2023-02-26T07:15:06;-1.20;99.90
3788;DHT22;1909;53.046;8.276;2023-02-26T07:17:32;-0.90;99.90
3788;DHT22;1909;53.046;8.276;2023-02-26T07:19:59;-1.00;99.90
3788;DHT22;1909;53.046;8.276;2023-02-26T07:22:31;-1.00;99.90
3788;DHT22;1909;53.046;8.276;2023-02-26T07:24:58;-1.00;99.90
3788;DHT22;1909;53.046;8.276;2023-02-26T07:27:25;-0.90;99.90
3788;DHT22;1909;53.046;8.276;2023-02-26T07:29:53;-0.90;99.90
3788;DHT22;1909;53.046;8.276;2023-02-26T07:32:20;-0.90;99.90
3788;DHT22;1909;53.046;8.276;2023-02-26T07:34:47;-1.00;99.90
3788;DHT22;1909;53.046;8.276;2023-02-26T07:37:14;-0.90;99.90
3788;DHT22;1909;53.046;8.276;2023-02-26T07:39:41;-0.90;99.90
3788;DHT22;1909;53.046;8.276;2023-02-26T07:42:08;-1.00;99.90
3788;DHT22;1909;53.046;8.276;2023-02-26T07:44:35;-0.70;99.90
3788;DHT22;1909;53.046;8.276;2023-02-26T07:49:31;-1.00;99.90
3788;DHT22;1909;53.046;8.276;2023-02-26T07:51:58;-0.90;99.90
3788;DHT22;1909;53.046;8.276;2023-02-26T07:54:26;-0.90;99.90
3788;DHT22;1909;53.046;8.276;2023-02-26T07:56:53;-0.90;99.90
3788;DHT22;1909;53.046;8.276;2023-02-26T07:59:19;-0.90;99.90
3788;DHT22;1909;53.046;8.276;2023-02-26T08:01:46;-0.80;99.90
3788;DHT22;1909;53.046;8.276;2023-02-26T08:04:15;-0.80;99.90
3788;DHT22;1909;53.046;8.276;2023-02-26T08:06:41;-0.80;99.90
3788;DHT22;1909;53.046;8.276;2023-02-26T08:09:09;-0.80;99.90
3788;DHT22;1909;53.046;8.276;2023-02-26T08:11:35;-0.80;99.90
3788;DHT22;1909;53.046;8.276;2023-02-26T08:14:05;-0.70;99.90
3788;DHT22;1909;53.046;8.276;2023-02-26T08:16:31;-0.70;99.90
3788;DHT22;1909;53.046;8.276;2023-02-26T08:18:59;0.50;99.90
3788;DHT22;1909;53.046;8.276;2023-02-26T08:21:27;-0.80;99.90
3788;DHT22;1909;53.046;8.276;2023-02-26T08:23:54;-0.70;99.90
3788;DHT22;1909;53.046;8.276;2023-02-26T08:26:21;-0.70;99.90
3788;DHT22;1909;53.046;8.276;2023-02-26T08:28:48;-0.60;99.90
3788;DHT22;1909;53.046;8.276;2023-02-26T08:31:16;-0.60;99.90
3788;DHT22;1909;53.046;8.276;2023-02-26T08:33:43;-0.60;99.90
3788;DHT22;1909;53.046;8.276;2023-02-26T08:36:10;-0.50;99.90
3788;DHT22;1909;53.046;8.276;2023-02-26T08:38:39;-0.50;99.90
3788;DHT22;1909;53.046;8.276;2023-02-26T08:41:06;-0.50;99.90
3788;DHT22;1909;53.046;8.276;2023-02-26T08:43:33;-0.50;99.90
3788;DHT22;1909;53.046;8.276;2023-02-26T08:45:59;-0.50;99.90
3788;DHT22;1909;53.046;8.276;2023-02-26T08:48:26;-0.30;99.90
3788;DHT22;1909;53.046;8.276;2023-02-26T08:50:53;-0.40;99.90
3788;DHT22;1909;53.046;8.276;2023-02-26T08:53:20;-0.30;99.90
3788;DHT22;1909;53.046;8.276;2023-02-26T08:55:48;0.00;99.90
3788;DHT22;1909;53.046;8.276;2023-02-26T08:58:16;-0.10;99.90
3788;DHT22;1909;53.046;8.276;2023-02-26T09:00:43;-0.10;99.90
3788;DHT22;1909;53.046;8.276;2023-02-26T09:03:10;-0.10;99.90
3788;DHT22;1909;53.046;8.276;2023-02-26T09:05:37;0.10;99.90
3788;DHT22;1909;53.046;8.276;2023-02-26T09:08:05;-0.10;99.90
3788;DHT22;1909;53.046;8.276;2023-02-26T09:10:32;0.00;99.90
3788;DHT22;1909;53.046;8.276;2023-02-26T09:13:00;0.00;99.90
3788;DHT22;1909;53.046;8.276;2023-02-26T09:15:27;0.00;99.90
3788;DHT22;1909;53.046;8.276;2023-02-26T09:17:54;0.30;99.90
3788;DHT22;1909;53.046;8.276;2023-02-26T09:20:21;-0.10;99.90
3788;DHT22;1909;53.046;8.276;2023-02-26T09:22:47;0.90;99.90
3788;DHT22;1909;53.046;8.276;2023-02-26T09:25:14;0.50;99.90
3788;DHT22;1909;53.046;8.276;2023-02-26T09:27:41;0.40;99.90
3788;DHT22;1909;53.046;8.276;2023-02-26T09:30:11;0.50;99.90
3788;DHT22;1909;53.046;8.276;2023-02-26T09:32:37;0.80;99.90
3788;DHT22;1909;53.046;8.276;2023-02-26T09:35:05;0.50;99.90
3788;DHT22;1909;53.046;8.276;2023-02-26T09:37:31;0.90;99.90
3788;DHT22;1909;53.046;8.276;2023-02-26T09:39:58;0.70;99.90
3788;DHT22;1909;53.046;8.276;2023-02-26T09:45:24;0.60;99.90
3788;DHT22;1909;53.046;8.276;2023-02-26T09:47:53;1.00;99.90
3788;DHT22;1909;53.046;8.276;2023-02-26T09:50:22;0.40;99.90
3788;DHT22;1909;53.046;8.276;2023-02-26T09:52:52;0.80;99.90
3788;DHT22;1909;53.046;8.276;2023-02-26T09:55:27;0.80;99.90
3788;DHT22;1909;53.046;8.276;2023-02-26T09:57:57;1.20;99.90
3788;DHT22;1909;53.046;8.276;2023-02-26T10:00:31;1.30;99.90
3788;DHT22;1909;53.046;8.276;2023-02-26T10:03:05;1.40;99.90
3788;DHT22;1909;53.046;8.276;2023-02-26T10:05:39;1.50;99.90
3788;DHT22;1909;53.046;8.276;2023-02-26T10:08:11;1.20;99.90
3788;DHT22;1909;53.046;8.276;2023-02-26T10:10:47;1.10;99.90
3788;DHT22;1909;53.046;8.276;2023-02-26T10:13:33;1.50;99.90
3788;DHT22;1909;53.046;8.276;2023-02-26T10:16:06;1.80;99.90
3788;DHT22;1909;53.046;8.276;2023-02-26T10:18:38;1.80;99.90
3788;DHT22;1909;53.046;8.276;2023-02-26T10:21:10;1.40;99.90
3788;DHT22;1909;53.046;8.276;2023-02-26T10:23:41;1.50;99.90
3788;DHT22;1909;53.046;8.276;2023-02-26T10:26:17;1.30;99.90
3788;DHT22;1909;53.046;8.276;2023-02-26T10:28:52;1.50;99.90
3788;DHT22;1909;53.046;8.276;2023-02-26T10:31:26;1.70;99.90
3788;DHT22;1909;53.046;8.276;2023-02-26T10:34:02;2.20;99.90
3788;DHT22;1909;53.046;8.276;2023-02-26T10:36:37;2.30;99.90
3788;DHT22;1909;53.046;8.276;2023-02-26T10:39:18;1.80;99.90
3788;DHT22;1909;53.046;8.276;2023-02-26T10:41:47;1.90;99.90
3788;DHT22;1909;53.046;8.276;2023-02-26T10:44:19;1.40;99.90
3788;DHT22;1909;53.046;8.276;2023-02-26T10:46:56;1.50;99.90
3788;DHT22;1909;53.046;8.276;2023-02-26T10:49:39;1.90;99.90
3788;DHT22;1909;53.046;8.276;2023-02-26T10:52:13;2.00;99.90
3788;DHT22;1909;53.046;8.276;2023-02-26T10:54:47;1.60;99.90
3788;DHT22;1909;53.046;8.276;2023-02-26T10:57:20;1.80;99.90
3788;DHT22;1909;53.046;8.276;2023-02-26T10:59:48;1.90;99.90
3788;DHT22;1909;53.046;8.276;2023-02-26T11:02:36;1.60;99.90
3788;DHT22;1909;53.046;8.276;2023-02-26T11:05:05;1.70;99.90
3788;DHT22;1909;53.046;8.276;2023-02-26T11:07:35;2.10;99.90
3788;DHT22;1909;53.046;8.276;2023-02-26T11:10:03;2.20;99.90
3788;DHT22;1909;53.046;8.276;2023-02-26T11:12:38;2.60;99.90
3788;DHT22;1909;53.046;8.276;2023-02-26T11:15:05;2.60;99.90
3788;DHT22;1909;53.046;8.276;2023-02-26T11:17:33;2.10;99.90
3788;DHT22;1909;53.046;8.276;2023-02-26T11:20:03;1.90;99.90
3788;DHT22;1909;53.046;8.276;2023-02-26T11:22:34;1.90;99.90
3788;DHT22;1909;53.046;8.276;2023-02-26T11:25:03;2.60;99.90
3788;DHT22;1909;53.046;8.276;2023-02-26T11:27:35;2.40;99.90
3788;DHT22;1909;53.046;8.276;2023-02-26T11:30:06;2.30;99.90
3788;DHT22;1909;53.046;8.276;2023-02-26T11:32:36;2.90;99.90
3788;DHT22;1909;53.046;8.276;2023-02-26T11:35:07;2.10;99.90
3788;DHT22;1909;53.046;8.276;2023-02-26T11:37:35;2.00;99.90
3788;DHT22;1909;53.046;8.276;2023-02-26T11:40:05;2.00;99.90
3788;DHT22;1909;53.046;8.276;2023-02-26T11:42:37;2.20;99.90
3788;DHT22;1909;53.046;8.276;2023-02-26T11:45:11;2.30;99.90
3788;DHT22;1909;53.046;8.276;2023-02-26T11:47:40;2.40;99.90
3788;DHT22;1909;53.046;8.276;2023-02-26T11:50:13;2.20;99.90
3788;DHT22;1909;53.046;8.276;2023-02-26T11:52:42;2.20;99.90
3788;DHT22;1909;53.046;8.276;2023-02-26T11:55:18;2.20;99.90
3788;DHT22;1909;53.046;8.276;2023-02-26T11:57:46;2.10;99.90
3788;DHT22;1909;53.046;8.276;2023-02-26T12:00:20;2.20;99.90
3788;DHT22;1909;53.046;8.276;2023-02-26T12:02:50;3.00;99.90
3788;DHT22;1909;53.046;8.276;2023-02-26T12:05:22;3.10;99.90
3788;DHT22;1909;53.046;8.276;2023-02-26T12:07:48;3.10;99.90
3788;DHT22;1909;53.046;8.276;2023-02-26T12:10:23;3.30;99.90
3788;DHT22;1909;53.046;8.276;2023-02-26T12:13:08;3.50;99.90
3788;DHT22;1909;53.046;8.276;2023-02-26T12:15:49;3.80;99.90
3788;DHT22;1909;53.046;8.276;2023-02-26T12:18:31;3.70;99.90
3788;DHT22;1909;53.046;8.276;2023-02-26T12:21:11;3.50;99.90
3788;DHT22;1909;53.046;8.276;2023-02-26T12:24:14;2.90;99.90
3788;DHT22;1909;53.046;8.276;2023-02-26T12:26:51;3.50;99.90
3788;DHT22;1909;53.046;8.276;2023-02-26T12:29:51;3.40;99.90
3788;DHT22;1909;53.046;8.276;2023-02-26T12:32:43;3.40;99.90
3788;DHT22;1909;53.046;8.276;2023-02-26T12:35:35;4.00;99.90
3788;DHT22;1909;53.046;8.276;2023-02-26T12:38:12;3.30;99.90
3788;DHT22;1909;53.046;8.276;2023-02-26T12:40:50;3.60;99.90
3788;DHT22;1909;53.046;8.276;2023-02-26T12:43:29;4.10;99.90
3788;DHT22;1909;53.046;8.276;2023-02-26T12:46:04;4.20;99.90
3788;DHT22;1909;53.046;8.276;2023-02-26T12:48:47;4.60;99.90
3788;DHT22;1909;53.046;8.276;2023-02-26T12:51:28;4.00;99.90
3788;DHT22;1909;53.046;8.276;2023-02-26T12:54:39;3.80;99.90
3788;DHT22;1909;53.046;8.276;2023-02-26T13:00:24;4.40;99.90
3788;DHT22;1909;53.046;8.276;2023-02-26T13:03:19;4.30;99.90
3788;DHT22;1909;53.046;8.276;2023-02-26T13:06:24;4.60;99.90
3788;DHT22;1909;53.046;8.276;2023-02-26T13:08:59;3.70;99.90
3788;DHT22;1909;53.046;8.276;2023-02-26T13:11:40;4.20;99.90
3788;DHT22;1909;53.046;8.276;2023-02-26T13:14:21;4.10;99.90
3788;DHT22;1909;53.046;8.276;2023-02-26T13:16:58;3.60;99.90
3788;DHT22;1909;53.046;8.276;2023-02-26T13:19:33;3.70;99.90
3788;DHT22;1909;53.046;8.276;2023-02-26T13:22:10;4.10;99.90
3788;DHT22;1909;53.046;8.276;2023-02-26T13:24:42;4.70;99.90
3788;DHT22;1909;53.046;8.276;2023-02-26T13:27:11;4.40;99.90
3788;DHT22;1909;53.046;8.276;2023-02-26T13:29:44;4.70;99.90
3788;DHT22;1909;53.046;8.276;2023-02-26T13:32:16;4.90;99.90
3788;DHT22;1909;53.046;8.276;2023-02-26T13:34:47;4.60;99.90
3788;DHT22;1909;53.046;8.276;2023-02-26T13:37:23;4.60;99.90
3788;DHT22;1909;53.046;8.276;2023-02-26T13:40:01;4.00;99.90
3788;DHT22;1909;53.046;8.276;2023-02-26T13:42:44;4.80;99.90
3788;DHT22;1909;53.046;8.276;2023-02-26T13:45:27;4.70;99.90
3788;DHT22;1909;53.046;8.276;2023-02-26T13:48:07;4.50;99.90
3788;DHT22;1909;53.046;8.276;2023-02-26T13:50:43;4.40;99.90
3788;DHT22;1909;53.046;8.276;2023-02-26T13:53:45;4.20;99.90
3788;DHT22;1909;53.046;8.276;2023-02-26T13:56:14;4.10;99.90
3788;DHT22;1909;53.046;8.276;2023-02-26T13:58:43;4.30;99.90
3788;DHT22;1909;53.046;8.276;2023-02-26T14:01:13;4.30;99.90
3788;DHT22;1909;53.046;8.276;2023-02-26T14:03:45;4.30;99.90
3788;DHT22;1909;53.046;8.276;2023-02-26T14:06:25;4.60;99.90
3788;DHT22;1909;53.046;8.276;2023-02-26T14:09:05;4.60;99.90
3788;DHT22;1909;53.046;8.276;2023-02-26T14:11:59;4.80;99.90
3788;DHT22;1909;53.046;8.276;2023-02-26T14:14:34;5.00;99.90
3788;DHT22;1909;53.046;8.276;2023-02-26T14:17:35;4.80;99.90
3788;DHT22;1909;53.046;8.276;2023-02-26T14:20:23;4.80;99.90
3788;DHT22;1909;53.046;8.276;2023-02-26T14:22:58;5.30;99.90
3788;DHT22;1909;53.046;8.276;2023-02-26T14:25:39;4.90;99.90
3788;DHT22;1909;53.046;8.276;2023-02-26T14:28:31;4.70;99.90
3788;DHT22;1909;53.046;8.276;2023-02-26T14:31:08;4.90;99.90
3788;DHT22;1909;53.046;8.276;2023-02-26T14:33:41;4.90;99.90
3788;DHT22;1909;53.046;8.276;2023-02-26T14:36:15;4.80;99.90
3788;DHT22;1909;53.046;8.276;2023-02-26T14:38:42;4.90;99.90
3788;DHT22;1909;53.046;8.276;2023-02-26T14:41:23;4.90;99.90
3788;DHT22;1909;53.046;8.276;2023-02-26T14:43:57;5.30;99.90
3788;DHT22;1909;53.046;8.276;2023-02-26T14:46:25;4.70;99.90
3788;DHT22;1909;53.046;8.276;2023-02-26T14:48:51;4.60;99.90
3788;DHT22;1909;53.046;8.276;2023-02-26T14:51:22;4.60;99.90
3788;DHT22;1909;53.046;8.276;2023-02-26T14:54:14;4.90;99.90
3788;DHT22;1909;53.046;8.276;2023-02-26T14:56:53;5.20;99.90
3788;DHT22;1909;53.046;8.276;2023-02-26T14:59:34;5.20;99.90
3788;DHT22;1909;53.046;8.276;2023-02-26T15:02:15;4.50;99.90
3788;DHT22;1909;53.046;8.276;2023-02-26T15:05:18;4.90;99.90
3788;DHT22;1909;53.046;8.276;2023-02-26T15:08:09;4.70;99.90
3788;DHT22;1909;53.046;8.276;2023-02-26T15:10:53;4.70;99.90
3788;DHT22;1909;53.046;8.276;2023-02-26T15:13:39;4.80;99.90
3788;DHT22;1909;53.046;8.276;2023-02-26T15:16:17;4.70;99.90
3788;DHT22;1909;53.046;8.276;2023-02-26T15:18:58;4.90;99.90
3788;DHT22;1909;53.046;8.276;2023-02-26T15:21:33;4.70;99.90
3788;DHT22;1909;53.046;8.276;2023-02-26T15:24:02;4.80;99.90
3788;DHT22;1909;53.046;8.276;2023-02-26T15:26:31;4.70;99.90
3788;DHT22;1909;53.046;8.276;2023-02-26T15:29:03;4.70;99.90
3788;DHT22;1909;53.046;8.276;2023-02-26T15:31:38;5.00;99.90
3788;DHT22;1909;53.046;8.276;2023-02-26T15:34:09;4.90;99.90
3788;DHT22;1909;53.046;8.276;2023-02-26T15:36:39;4.90;99.90
3788;DHT22;1909;53.046;8.276;2023-02-26T15:39:08;4.90;99.90
3788;DHT22;1909;53.046;8.276;2023-02-26T15:41:35;5.40;99.90
3788;DHT22;1909;53.046;8.276;2023-02-26T15:44:07;4.80;99.90
3788;DHT22;1909;53.046;8.276;2023-02-26T15:46:38;4.70;99.90
3788;DHT22;1909;53.046;8.276;2023-02-26T15:49:07;4.70;99.90
3788;DHT22;1909;53.046;8.276;2023-02-26T15:51:36;4.70;99.90
3788;DHT22;1909;53.046;8.276;2023-02-26T15:54:03;4.80;99.90
3788;DHT22;1909;53.046;8.276;2023-02-26T15:56:33;4.70;99.90
3788;DHT22;1909;53.046;8.276;2023-02-26T15:59:03;4.60;99.90
3788;DHT22;1909;53.046;8.276;2023-02-26T16:01:33;4.60;99.90
3788;DHT22;1909;53.046;8.276;2023-02-26T16:04:03;4.70;99.90
3788;DHT22;1909;53.046;8.276;2023-02-26T16:06:34;4.60;99.90
3788;DHT22;1909;53.046;8.276;2023-02-26T16:09:04;5.00;99.90
3788;DHT22;1909;53.046;8.276;2023-02-26T16:11:33;4.60;99.90
3788;DHT22;1909;53.046;8.276;2023-02-26T16:14:01;4.50;99.90
3788;DHT22;1909;53.046;8.276;2023-02-26T16:16:37;4.60;99.90
3788;DHT22;1909;53.046;8.276;2023-02-26T16:19:05;4.80;99.90
3788;DHT22;1909;53.046;8.276;2023-02-26T16:21:35;4.50;99.90
3788;DHT22;1909;53.046;8.276;2023-02-26T16:24:05;4.50;99.90
3788;DHT22;1909;53.046;8.276;2023-02-26T16:26:34;4.50;99.90
3788;DHT22;1909;53.046;8.276;2023-02-26T16:29:07;4.50;99.90
3788;DHT22;1909;53.046;8.276;2023-02-26T16:31:39;4.50;99.90
3788;DHT22;1909;53.046;8.276;2023-02-26T16:34:25;4.40;99.90
3788;DHT22;1909;53.046;8.276;2023-02-26T16:36:53;4.30;99.90
3788;DHT22;1909;53.046;8.276;2023-02-26T16:39:23;4.20;99.90
3788;DHT22;1909;53.046;8.276;2023-02-26T16:42:01;4.20;99.90
3788;DHT22;1909;53.046;8.276;2023-02-26T16:44:44;4.40;99.90
3788;DHT22;1909;53.046;8.276;2023-02-26T16:47:14;4.30;99.90
3788;DHT22;1909;53.046;8.276;2023-02-26T16:49:42;4.10;99.90
3788;DHT22;1909;53.046;8.276;2023-02-26T16:52:15;4.00;99.90
3788;DHT22;1909;53.046;8.276;2023-02-26T16:54:51;4.10;99.90
3788;DHT22;1909;53.046;8.276;2023-02-26T16:57:22;4.00;99.90
3788;DHT22;1909;53.046;8.276;2023-02-26T16:59:53;4.20;99.90